Tiempo atmosférico en la estación meteorológica de Hijar, Teruel (300 m.)



Fecha
DESCASC
Temp. máxima en grados centígrados (hora)
DESCASC
Temp. mínima en grados centígrados (hora)
DESCASC
Temp. media en grados centígrados
DESCASC
Racha de viento máxima en m/sg (hora)
DESCASC
Velocidad máxima media en intervalos de 10 minutos(hora)
DESCASC
Precipitaciones diarias en mm
DESCASC
Precipitaciones de 00:00 a 06:00 en mm
DESCASC
Precipitaciones de 06:00 a 12:00 en mm
DESCASC
Precipitaciones de 12:00 a 18:00 en mm
DESCASC
Precipitaciones de 18:00 a 24:00 en mm
DESCASC
15-11-2018 14.4 (15:20) 11.2 (04:40) 12.8 2.78 (00:20) 1.94 (00:20) 3.8 0 3.2 0.6 0
14-11-2018 16.9 (15:40) 11.1 (00:00) 14 3.61 (16:50) 2.5 (16:50) 0 0 0 0 0
13-11-2018 16.2 (14:40) 10.4 (23:10) 13.3 4.72 (01:00) 3.33 (01:00) 0 0 0 0 0
12-11-2018 20.3 (14:10) 7.8 (07:50) 14 9.17 (15:40) 6.39 (15:40) 0 0 0 0 0
11-11-2018 21 (14:20) 11 (00:00) 16 7.22 (16:40) 5.28 (14:50) 0 0 0 0 0
10-11-2018 19.4 (14:00) 9.7 (00:00) 14.5 9.17 (03:00) 6.11 (03:00) 0.2 0 0 0.2 0
09-11-2018 -- (--) -- (--) -- -- (--) -- (--) -- 1.6 -- -- 0
08-11-2018 14.5 (14:20) 6.4 (00:00) 10.5 11.94 (23:40) 8.33 (23:40) 4.2 0 0 0 4.2
07-11-2018 17.9 (15:10) 8 (00:00) 12.9 5.83 (10:30) 3.89 (20:50) 0 0 0 0 0
06-11-2018 17.6 (14:20) 6.7 (00:00) 12.2 -- (--) -- (--) 0.2 0.2 0 0 0
05-11-2018 10.5 (15:10) 5.2 (00:00) 7.8 6.11 (17:10) 4.17 (22:00) 2 0 0 2 0
04-11-2018 15.2 (14:40) 3.5 (00:00) 9.3 5.28 (00:40) 3.61 (00:40) 0 0 0 0 0
03-11-2018 16.7 (15:00) 7.2 (00:00) 12 9.17 (00:40) 5.83 (04:20) 0 0 0 0 0
02-11-2018 15.1 (15:40) 8.4 (00:00) 11.8 11.11 (22:00) 6.39 (20:30) 3.2 1.8 1.4 0 0
01-11-2018 16.4 (13:50) 6.4 (00:00) 11.4 6.39 (12:10) 3.33 (23:00) 0 0 0 0 0
31-10-2018 13.5 (16:30) 7 (00:00) 10.3 7.22 (14:00) 4.44 (14:10) 7.8 6.4 1 0.4 0
30-10-2018 12.7 (16:00) 4.1 (00:00) 8.4 10.28 (00:50) 6.94 (00:50) 3.2 0 0 0.4 2.8
29-10-2018 10.6 (14:50) 3.7 (00:00) 7.2 20.83 (11:20) 12.22 (11:20) 0 0 0 0 0
28-10-2018 11.7 (14:00) 3.8 (00:00) 7.7 11.67 (14:20) 5.83 (07:30) 0 0 0 0 0
27-10-2018 14.5 (00:00) 7.4 (00:00) 11 12.22 (13:10) 5.83 (05:40) 3 0.6 2.4 0 0
26-10-2018 19.9 (16:30) 9.4 (00:00) 14.6 5 (23:59) 3.33 (21:10) 1 0 0 0 1
25-10-2018 22.2 (15:50) 8.6 (00:00) 15.4 5.28 (05:40) 3.89 (02:10) 0 0 0 0 0
24-10-2018 23.7 (16:10) 8.4 (00:00) 16.1 5.83 (21:20) 4.44 (21:10) 0 0 0 0 0
23-10-2018 22.1 (15:10) 9.7 (00:00) 15.9 7.22 (10:40) 4.44 (11:20) 0 0 0 0 0
22-10-2018 23.2 (15:40) 12.3 (00:00) 17.8 7.78 (10:40) 4.44 (20:40) 0 0 0 0 0
21-10-2018 22.2 (16:00) 12.5 (00:00) 17.4 4.72 (21:00) 3.89 (21:40) 0 0 0 0 0
20-10-2018 20.5 (17:10) 14.3 (00:00) 17.4 4.17 (16:00) 2.78 (18:10) 0.2 0.2 0 0 0
19-10-2018 17.8 (16:30) 14.8 (00:00) 16.3 9.17 (20:40) 6.67 (20:40) 30.8 13 5 2.4 10.4
18-10-2018 20.4 (15:30) 11.1 (00:00) 15.8 4.44 (06:00) 3.61 (02:20) 23 0 0 3.8 19.2

Gráficas

Temp. máximas Temp. mínimas Temp. medias Precipitaciones Rachas de viento máximas Velocidades máximas media en intervalos de 10 minutos

Datos horarios

Fecha y hora oficial Temperatura (ºC) Velocidad del viento (km/h) Dirección del viento Racha (km/h) Dirección de racha Precipitación (mm) Presión (hPa) Tendencia (hPa) Humedad (%)
2018-11-16 23:00:00 11 5 Este 7 Este 0 -- -- 95
2018-11-16 22:00:00 11.6 0 Calma 6 Sur 0 -- -- 95
2018-11-16 21:00:00 12 5 Sudoeste 9 Oeste 0 -- -- 95
2018-11-16 20:00:00 13 0 Calma 5 Sudoeste 0 -- -- 94
2018-11-16 19:00:00 13.8 0 Calma 4 Este 0 -- -- 91
2018-11-16 18:00:00 14.9 4 Este 10 Nordeste 0 -- -- 90
2018-11-16 17:00:00 15.6 8 Nordeste 17 Nordeste 0 -- -- 89
2018-11-16 16:00:00 16.4 5 Nordeste 13 Este 0 -- -- 86
2018-11-16 15:00:00 15.9 7 Nordeste 16 Nordeste 0 -- -- 87
2018-11-16 14:00:00 15.6 8 Nordeste 17 Nordeste 0 -- -- 89
2018-11-16 13:00:00 14.4 8 Nordeste 13 Nordeste 0 -- -- 93
2018-11-16 12:00:00 14 6 Nordeste 9 Este 0 -- -- 96
2018-11-16 11:00:00 13.3 4 Este 8 Nordeste 0 -- -- 97
2018-11-16 10:00:00 12.9 0 Calma 4 Nordeste 0 -- -- 97
2018-11-16 09:00:00 12.6 2 Nordeste 4 Nordeste 0 -- -- 97
2018-11-16 08:00:00 12.4 2 Este 7 Este 0 -- -- 97
2018-11-16 07:00:00 12.5 0 Calma 8 Nordeste 0 -- -- 97
2018-11-16 06:00:00 12.4 7 Este 9 Este 0 -- -- 97
2018-11-16 05:00:00 12.6 3 Sudoeste 10 Sudoeste 0 -- -- 97
2018-11-16 04:00:00 12.4 6 Sudoeste 14 Sudoeste 0 -- -- 97
2018-11-16 03:00:00 12.3 8 Sudoeste 12 Sudoeste 0 -- -- 97
2018-11-16 02:00:00 12.3 5 Sudoeste 7 Sudoeste 0 -- -- 97
2018-11-16 01:00:00 12 3 Sudoeste 5 Sudoeste 0 -- -- 96
2018-11-16 00:00:00 11.8 3 Sudoeste 5 Sudoeste 0 -- -- 96
2018-11-15 23:00:00 11.7 2 Sudoeste 5 Sudoeste 0 -- -- 95
2018-11-15 22:00:00 12.6 2 Sudoeste 3 Sudoeste 0 -- -- 94
2018-11-15 21:00:00 13 2 Sur 5 Sudoeste 0 -- -- 95
2018-11-15 20:00:00 13.4 0 Calma 8 Este 0 -- -- 95
2018-11-15 19:00:00 13.6 2 Nordeste 6 Este 0 -- -- 94
2018-11-15 18:00:00 13.9 0 Calma 3 Nordeste 0 -- -- 93
2018-11-15 17:00:00 14.1 3 Nordeste 8 Nordeste 0.2 -- -- 94
2018-11-15 16:00:00 13.8 5 Nordeste 10 Este 0 -- -- 94
2018-11-15 15:00:00 14.2 3 Nordeste 8 Nordeste 0 -- -- 95
2018-11-15 14:00:00 13.6 3 Nordeste 5 Nordeste 0 -- -- 96
2018-11-15 13:00:00 13.2 0 Calma 7 Sudoeste 0.4 -- -- 97
2018-11-15 12:00:00 12.9 4 Oeste 6 Sudoeste 2 -- -- 96
2018-11-15 11:00:00 12.8 0 Calma 2 Norte 0.8 -- -- 95
2018-11-15 10:00:00 12.4 0 Calma 6 Sudoeste 0 -- -- 96
2018-11-15 09:00:00 12.1 2 Sudoeste 6 Sudoeste 0.2 -- -- 96
2018-11-15 08:00:00 11.7 4 Oeste 8 Sudoeste 0.2 -- -- 94
2018-11-15 07:00:00 11.6 2 Sudoeste 10 Sudoeste 0 -- -- 94
2018-11-15 06:00:00 11.4 3 Sudoeste 6 Sudoeste 0 -- -- 94
2018-11-15 05:00:00 11.4 2 Sur 5 Sudoeste 0 -- -- 95
2018-11-15 04:00:00 11.5 3 Sudoeste 4 Sudoeste 0 -- -- 94
2018-11-15 03:00:00 11.8 0 Calma 2 Nordeste 0 -- -- 93
2018-11-15 02:00:00 12 0 Calma 4 Este 0 -- -- 92
2018-11-15 01:00:00 12.3 3 Sudoeste 10 Este 0 -- -- 90
2018-11-15 00:00:00 12.5 4 Este 10 Nordeste 0 -- -- 91
2018-11-14 23:00:00 13.2 7 Este 10 Este 0 -- -- 90
2018-11-14 22:00:00 13.1 3 Este 6 Este 0 -- -- 91
2018-11-14 21:00:00 13.2 2 Sudoeste 5 Sudoeste 0 -- -- 88
2018-11-14 20:00:00 14 3 Sudoeste 4 Sudoeste 0 -- -- 87
2018-11-14 19:00:00 15 2 Este 8 Nordeste 0 -- -- 83
2018-11-14 18:00:00 15.8 5 Este 10 Nordeste 0 -- -- 81
2018-11-14 17:00:00 16.3 9 Nordeste 13 Este 0 -- -- 83
2018-11-14 16:00:00 16.7 4 Nordeste 8 Nordeste 0 -- -- 82
2018-11-14 15:00:00 15.9 4 Este 10 Nordeste 0 -- -- 83
2018-11-14 14:00:00 15.1 0 Calma 4 Noroeste 0 -- -- 86
2018-11-14 13:00:00 14.3 0 Calma 4 Norte 0 -- -- 89
2018-11-14 12:00:00 14.3 2 Norte 6 Norte 0 -- -- 90
2018-11-14 11:00:00 13.3 2 Norte 5 Este 0 -- -- 93
2018-11-14 10:00:00 12.7 3 Nordeste 5 Nordeste 0 -- -- 94
2018-11-14 09:00:00 12.1 0 Calma 3 Sudoeste 0 -- -- 94
2018-11-14 08:00:00 11.7 3 Sudoeste 8 Sudoeste 0 -- -- 95
2018-11-14 07:00:00 11.8 3 Sudoeste 6 Sudoeste 0 -- -- 95
2018-11-14 06:00:00 11.9 3 Sudoeste 8 Sudoeste 0 -- -- 95
2018-11-14 05:00:00 11.9 5 Sudoeste 9 Oeste 0 -- -- 94
2018-11-14 04:00:00 11.8 4 Sudoeste 8 Sudoeste 0 -- -- 94
2018-11-14 03:00:00 11.6 5 Sudoeste 8 Sudoeste 0 -- -- 95
2018-11-14 02:00:00 11.4 4 Sudoeste 9 Sudoeste 0 -- -- 95
2018-11-14 01:00:00 11.3 5 Sudoeste 8 Sudoeste 0 -- -- 96
2018-11-14 00:00:00 11.1 4 Sudoeste 8 Sudoeste 0 -- -- 96
2018-11-13 23:00:00 10.5 4 Sudoeste 6 Sudoeste 0 -- -- 96
2018-11-13 22:00:00 10.9 4 Sudoeste 8 Sudoeste 0 -- -- 94
2018-11-13 21:00:00 11.9 2 Este 8 Sudeste 0 -- -- 93
2018-11-13 20:00:00 12.2 3 Sudoeste 8 Sudeste 0 -- -- 92
2018-11-13 19:00:00 13.3 6 Sudeste 8 Sudeste 0 -- -- 90
2018-11-13 18:00:00 14.4 6 Sudeste 8 Este 0 -- -- 87
2018-11-13 17:00:00 15.6 2 Este 4 Este 0 -- -- 83
2018-11-13 16:00:00 16 2 Noroeste 7 Norte 0 -- -- 82
2018-11-13 15:00:00 16.2 2 Norte 6 Noroeste 0 -- -- 82
2018-11-13 14:00:00 15.9 2 Noroeste 8 Oeste 0 -- -- 83
2018-11-13 13:00:00 14.9 5 Oeste 9 Noroeste 0 -- -- 89
2018-11-13 12:00:00 14.1 0 Calma 3 Nordeste 0 -- -- 89
2018-11-13 11:00:00 13.6 0 Calma 2 Oeste 0 -- -- 89
2018-11-13 10:00:00 13 0 Calma 9 Sudoeste 0 -- -- 90
2018-11-13 09:00:00 12.6 3 Sudoeste 10 Oeste 0 -- -- 90
2018-11-13 08:00:00 12.1 8 Sudoeste 16 Sudoeste 0 -- -- 91
2018-11-13 07:00:00 11.8 10 Sudoeste 15 Sudoeste 0 -- -- 89
2018-11-13 06:00:00 12 9 Sudoeste 15 Sudoeste 0 -- -- 91
2018-11-13 05:00:00 12.4 10 Sudoeste 14 Sudoeste 0 -- -- 93
2018-11-13 04:00:00 12.5 6 Sudoeste 11 Sudoeste 0 -- -- 94
2018-11-13 03:00:00 12.4 8 Sudoeste 12 Sudoeste 0 -- -- 95
2018-11-13 02:00:00 12 7 Oeste 13 Sudoeste 0 -- -- 94
2018-11-13 01:00:00 10.9 12 Sudoeste 17 Sudoeste 0 -- -- 96
2018-11-13 00:00:00 11.3 8 Sudoeste 11 Oeste 0 -- -- 94
2018-11-12 23:00:00 11.4 5 Sudoeste 11 Oeste 0 -- -- 92
2018-11-12 22:00:00 11.8 5 Sudoeste 12 Sudoeste 0 -- -- 92
2018-11-12 21:00:00 12.8 4 Sudoeste 6 Sudoeste 0 -- -- 89
2018-11-12 20:00:00 14 3 Sudoeste 4 Sur 0 -- -- 86
2018-11-12 19:00:00 14.8 0 Calma 10 Este 0 -- -- 81
2018-11-12 18:00:00 15.9 9 Este 13 Este 0 -- -- 78
2018-11-12 17:00:00 17 12 Este 27 Este 0 -- -- 75
2018-11-12 16:00:00 18.3 21 Este 33 Este 0 -- -- 73
2018-11-12 15:00:00 19.1 17 Este 27 Este 0 -- -- 70
2018-11-12 14:00:00 20.2 4 Norte 15 Nordeste 0 -- -- 67
2018-11-12 13:00:00 19.1 5 Nordeste 11 Nordeste 0 -- -- 70
2018-11-12 12:00:00 16.8 5 Nordeste 13 Nordeste 0 -- -- 75
2018-11-12 11:00:00 15.3 4 Este 8 Oeste 0 -- -- 78
2018-11-12 10:00:00 12.8 4 Sudoeste 12 Oeste 0 -- -- 86
2018-11-12 09:00:00 9.7 8 Sudoeste 13 Sudoeste 0 -- -- 93
2018-11-12 08:00:00 7.8 11 Sudoeste 14 Sudoeste 0 -- -- 96
2018-11-12 07:00:00 8.1 3 Sudoeste 9 Oeste 0 -- -- 95
2018-11-12 06:00:00 8.5 3 Sudoeste 8 Oeste 0 -- -- 96
2018-11-12 05:00:00 8.4 6 Sudoeste 13 Sudoeste 0 -- -- 96
2018-11-12 04:00:00 8.9 6 Sudoeste 10 Sudoeste 0 -- -- 94
2018-11-12 03:00:00 9.7 3 Sudoeste 8 Oeste 0 -- -- 94
2018-11-12 02:00:00 10.1 2 Sudeste 12 Este 0 -- -- 93
2018-11-12 01:00:00 10.4 3 Sudeste 6 Oeste 0 -- -- 91
2018-11-12 00:00:00 11 2 Sudoeste 6 Noroeste 0 -- -- 88
2018-11-11 23:00:00 11.9 3 Norte 8 Oeste 0 -- -- 87
2018-11-11 22:00:00 12.7 3 Sudoeste 9 Este 0 -- -- 85
2018-11-11 21:00:00 13.1 6 Sudoeste 9 Sudoeste 0 -- -- 85
2018-11-11 20:00:00 15.3 5 Este 11 Este 0 -- -- 76
2018-11-11 19:00:00 16.5 2 Este 14 Este 0 -- -- 74
2018-11-11 18:00:00 17.6 11 Este 17 Este 0 -- -- 70
2018-11-11 17:00:00 19 14 Este 26 Este 0 -- -- 69
2018-11-11 16:00:00 19.9 15 Este 23 Este 0 -- -- 64
2018-11-11 15:00:00 20.1 16 Este 25 Nordeste 0 -- -- 64
2018-11-11 14:00:00 20.6 5 Nordeste 18 Nordeste 0 -- -- 66
2018-11-11 13:00:00 17.8 8 Nordeste 14 Nordeste 0 -- -- 75
2018-11-11 12:00:00 17.8 4 Nordeste 10 Este 0 -- -- 73
2018-11-11 11:00:00 16.6 0 Calma 6 Norte 0 -- -- 74
2018-11-11 10:00:00 15.1 3 Noroeste 14 Nordeste 0 -- -- 79
2018-11-11 09:00:00 12.2 0 Calma 10 Sudoeste 0 -- -- 86
2018-11-11 08:00:00 11.2 5 Este 9 Este 0 -- -- 88
2018-11-11 07:00:00 11.4 3 Este 6 Norte 0 -- -- 86
2018-11-11 06:00:00 12.3 2 Sudoeste 11 Sudoeste 0 -- -- 81
2018-11-11 05:00:00 11.7 5 Sudoeste 14 Sudoeste 0 -- -- 83
2018-11-11 04:00:00 11.8 6 Sudoeste 12 Sudoeste 0 -- -- 82
2018-11-11 03:00:00 12.4 8 Sudoeste 13 Sudoeste 0 -- -- 80
2018-11-11 02:00:00 12.3 9 Sudoeste 13 Sudoeste 0 -- -- 81
2018-11-11 01:00:00 13.9 9 Sudoeste 13 Sur 0 -- -- 74
2018-11-11 00:00:00 13 3 Sur 7 Sur 0 -- -- 77
2018-11-10 23:00:00 13.3 3 Sur 12 Sudoeste 0 -- -- 77
2018-11-10 22:00:00 13.1 7 Sudoeste 12 Oeste 0 -- -- 79
2018-11-10 21:00:00 13.9 5 Oeste 15 Oeste 0 -- -- 78
2018-11-10 20:00:00 14.4 6 Este 12 Sudeste 0 -- -- 77
2018-11-10 19:00:00 15.1 5 Nordeste 22 Sudoeste 0 -- -- 76
2018-11-10 18:00:00 15.3 4 Sudoeste 14 Este 0 -- -- 79
2018-11-10 17:00:00 15.6 11 Este 15 Este 0.2 -- -- 77
2018-11-10 16:00:00 17.2 9 Nordeste 15 Este 0 -- -- 68
2018-11-10 15:00:00 17.5 9 Nordeste 17 Este 0 -- -- 66
2018-11-10 14:00:00 19.4 5 Nordeste 12 Nordeste 0 -- -- 56
2018-11-10 13:00:00 17.2 3 Nordeste 14 Nordeste 0 -- -- 67
2018-11-10 12:00:00 14.6 3 Nordeste 17 Nordeste 0 -- -- 76
2018-11-10 11:00:00 12.8 6 Nordeste 18 Nordeste 0 -- -- 81
2018-11-10 10:00:00 12.2 7 Nordeste 11 Oeste 0 -- -- 76
2018-11-10 09:00:00 10.6 4 Nordeste 9 Nordeste 0 -- -- 79
2018-11-10 08:00:00 10.9 2 Sudoeste 10 Este 0 -- -- 74
2018-11-10 07:00:00 10.1 3 Sur 12 Este 0 -- -- 75
2018-11-10 06:00:00 10.5 6 Este 12 Este 0 -- -- 71
2018-11-10 05:00:00 11.2 4 Nordeste 10 Este 0 -- -- 70
2018-11-10 04:00:00 12.7 2 Sudoeste 24 Oeste 0 -- -- 62
2018-11-10 03:00:00 13.4 22 Oeste 33 Oeste 0 -- -- 59
2018-11-10 02:00:00 11.3 10 Oeste 16 Oeste 0 -- -- 69
2018-11-10 01:00:00 9.9 5 Sudoeste 6 Sudoeste 0 -- -- 70
2018-11-10 00:00:00 10.2 0 Calma 3 Norte 0 -- -- 70
2018-11-09 23:00:00 10.6 3 Sudoeste 13 Sudoeste 0 -- -- 65
2018-11-09 22:00:00 9.1 10 Sudoeste 15 Sudoeste 0 -- -- 70
2018-11-09 21:00:00 8.9 9 Sudoeste 12 Sudoeste 0 -- -- 68
2018-11-09 20:00:00 9 9 Sudoeste 19 Oeste 0 -- -- 68
2018-11-09 19:00:00 10.5 10 Oeste 31 Oeste 0 -- -- 62
2018-11-09 18:00:00 11.8 17 Oeste 31 Oeste 0 -- -- 58
2018-11-09 17:00:00 13.5 25 Oeste 49 Oeste 0 -- -- 57
2018-11-09 16:00:00 14 28 Oeste 53 Oeste 0 -- -- 54
2018-11-09 15:00:00 16 30 Oeste 46 Oeste 0 -- -- 52
2018-11-09 14:00:00 16.2 20 Oeste 44 Oeste 0 -- -- 55
2018-11-09 13:00:00 -- -- -- -- -- -- -- -- --
2018-11-09 12:00:00 -- -- -- -- -- -- -- -- --
2018-11-09 11:00:00 -- -- -- -- -- -- -- -- --
2018-11-09 10:00:00 -- -- -- -- -- -- -- -- --
2018-11-09 09:00:00 -- -- -- -- -- -- -- -- --
2018-11-09 08:00:00 8.9 20 Oeste 32 Oeste 0 -- -- 74
2018-11-09 07:00:00 9 17 Oeste 26 Oeste 0 -- -- 76
2018-11-09 06:00:00 9.2 13 Oeste 26 Oeste 0 -- -- 80
2018-11-09 05:00:00 9.7 17 Oeste 40 Oeste 0 -- -- 79
2018-11-09 04:00:00 9.7 21 Oeste 35 Oeste 0 -- -- 85
2018-11-09 03:00:00 9.9 9 Sudoeste 14 Oeste 0 -- -- 93
2018-11-09 02:00:00 10.6 5 Este 8 Oeste 0.8 -- -- 90
2018-11-09 01:00:00 11.2 4 Norte 49 Sudeste 0.8 -- -- 86
2018-11-09 00:00:00 11.4 28 Sur 43 Sur 1.6 -- -- 83
2018-11-08 23:00:00 11.9 19 Sudoeste 31 Sur 1.6 -- -- 91
2018-11-08 22:00:00 11.5 3 Sudoeste 6 Oeste 1 -- -- 91
2018-11-08 21:00:00 11.8 3 Sudoeste 8 Oeste 0 -- -- 88
2018-11-08 20:00:00 12.1 3 Sur 12 Oeste 0 -- -- 87
2018-11-08 19:00:00 12.5 5 Sudoeste 9 Sudoeste 0 -- -- 86
2018-11-08 18:00:00 13.3 3 Oeste 14 Este 0 -- -- 82
2018-11-08 17:00:00 13.8 9 Este 20 Nordeste 0 -- -- 81
2018-11-08 16:00:00 13.9 13 Este 21 Este 0 -- -- 78
2018-11-08 15:00:00 14.2 18 Este 22 Este 0 -- -- 74
2018-11-08 14:00:00 13.8 9 Este 14 Nordeste 0 -- -- 75
2018-11-08 13:00:00 13.2 8 Este 14 Este 0 -- -- 76
2018-11-08 12:00:00 13.8 5 Nordeste 10 Este 0 -- -- 72
2018-11-08 11:00:00 11.9 2 Nordeste 9 Nordeste 0 -- -- 76
2018-11-08 10:00:00 9.2 4 Nordeste 9 Nordeste 0 -- -- 85
2018-11-08 09:00:00 8.8 8 Este 11 Este 0 -- -- 81
2018-11-08 08:00:00 6.4 4 Sudoeste 5 Oeste 0 -- -- 88
2018-11-08 07:00:00 7.4 0 Calma 6 Sudoeste 0 -- -- 85
2018-11-08 06:00:00 7.2 3 Sudoeste 9 Este 0 -- -- 85
2018-11-08 05:00:00 7.8 3 Sudoeste 9 Sudoeste 0 -- -- 84
2018-11-08 04:00:00 8.1 8 Sudoeste 12 Sudoeste 0 -- -- 83
2018-11-08 03:00:00 8.4 4 Sudoeste 8 Sudeste 0 -- -- 82
2018-11-08 02:00:00 9.1 4 Este 8 Nordeste 0 -- -- 81
2018-11-08 01:00:00 9.8 0 Calma 11 Oeste 0 -- -- 76
2018-11-08 00:00:00 9.8 3 Noroeste 13 Nordeste 0 -- -- 77
2018-11-07 23:00:00 10.9 3 Oeste 12 Sudoeste 0 -- -- 73
2018-11-07 22:00:00 11.9 9 Sudoeste 17 Sudoeste 0 -- -- 70
2018-11-07 21:00:00 12.6 12 Sudoeste 19 Sudoeste 0 -- -- 70
2018-11-07 20:00:00 13.7 12 Sudoeste 19 Oeste 0 -- -- 67
2018-11-07 19:00:00 13.9 9 Sudoeste 14 Sudoeste 0 -- -- 72
2018-11-07 18:00:00 14.1 4 Sudoeste 7 Sudoeste 0 -- -- 80
2018-11-07 17:00:00 14.2 5 Sudoeste 15 Sudoeste 0 -- -- 80
2018-11-07 16:00:00 15.9 4 Noroeste 19 Norte 0 -- -- 66
2018-11-07 15:00:00 17.6 3 Norte 10 Este 0 -- -- 57
2018-11-07 14:00:00 16.4 6 Nordeste 15 Nordeste 0 -- -- 63
2018-11-07 13:00:00 16 8 Nordeste 17 Nordeste 0 -- -- 66
2018-11-07 12:00:00 17.2 5 Sur 16 Sur 0 -- -- 52
2018-11-07 11:00:00 15.1 8 Sur 21 Sudeste 0 -- -- 57
2018-11-07 10:00:00 14.7 9 Sur 17 Sur 0 -- -- 59
2018-11-07 09:00:00 11.5 10 Sur 19 Sur 0 -- -- 64
2018-11-07 08:00:00 10.2 4 Sudeste 13 Sur 0 -- -- 72
2018-11-07 07:00:00 8.3 3 Sur 13 Sudoeste 0 -- -- 80
2018-11-07 06:00:00 8.1 5 Sudoeste 10 Sudoeste 0 -- -- 79
2018-11-07 05:00:00 8.1 4 Sudoeste 10 Sudoeste 0 -- -- 79
2018-11-07 04:00:00 8.2 3 Sudoeste 10 Sudoeste 0 -- -- 78
2018-11-07 03:00:00 8.9 3 Sudeste 13 Oeste 0 -- -- 73
2018-11-07 02:00:00 9.9 7 Sudeste 12 Sudeste 0 -- -- 70
2018-11-07 01:00:00 9.6 5 Sudeste 9 Sudeste 0 -- -- 68
2018-11-07 00:00:00 10.7 6 Sudeste 10 Sudeste 0 -- -- 64
2018-11-06 23:00:00 10.8 4 Sur 8 Sur 0 -- -- 63
2018-11-06 22:00:00 10 4 Sudoeste 8 Sudoeste 0 -- -- 66
2018-11-06 21:00:00 10.8 4 Sudoeste 10 Sudoeste 0 -- -- 62
2018-11-06 20:00:00 11.6 8 Sudoeste 16 Sur 0 -- -- 59
2018-11-06 19:00:00 11.9 12 Sudoeste 22 Sudoeste 0 -- -- 58
2018-11-06 18:00:00 12.5 12 Sudoeste 20 Sudoeste 0 -- -- 54
2018-11-06 17:00:00 14.6 16 Sudoeste 31 Oeste 0 -- -- 50
2018-11-06 16:00:00 14.7 19 Oeste 38 Oeste 0 -- -- 49
2018-11-06 15:00:00 15.6 21 Oeste 37 Oeste 0 -- -- 50
2018-11-06 14:00:00 17.1 17 Oeste 38 Oeste 0 -- -- 50
2018-11-06 13:00:00 14.2 15 Oeste 41 Oeste 0 -- -- 57
2018-11-06 12:00:00 13.8 12 Oeste -- -- -- -- -- 61
2018-11-06 11:00:00 11.3 18 Oeste 36 Oeste 0 -- -- 64
2018-11-06 10:00:00 10.4 19 Oeste 42 Oeste 0 -- -- 65
2018-11-06 09:00:00 9.6 20 Oeste 41 Oeste 0 -- -- 68
2018-11-06 08:00:00 9.5 21 Oeste 34 Oeste 0 -- -- 69
2018-11-06 07:00:00 8.7 10 Oeste 24 Sudoeste 0 -- -- 77
2018-11-06 06:00:00 9 12 Sudoeste 22 Sudoeste 0.2 -- -- 76
2018-11-06 05:00:00 9 14 Sudoeste 27 Sudoeste 0 -- -- 76
2018-11-06 04:00:00 8.9 7 Oeste 18 Oeste 0 -- -- 72
2018-11-06 03:00:00 7.6 6 Sudoeste 11 Oeste 0 -- -- 78
2018-11-06 02:00:00 7.2 7 Sudoeste 15 Oeste 0 -- -- 79
2018-11-06 01:00:00 8 9 Sudoeste 15 Sudoeste 0 -- -- 75
2018-11-06 00:00:00 7.5 9 Sudoeste 18 Sudoeste 0 -- -- 78
2018-11-05 23:00:00 7.7 7 Sudoeste 22 Sudoeste 0 -- -- 78
2018-11-05 22:00:00 7.7 15 Sudoeste 19 Sudoeste 0 -- -- 81
2018-11-05 21:00:00 7.8 10 Sudoeste 13 Sudoeste 0 -- -- 84
2018-11-05 20:00:00 10.1 9 Sudoeste 15 Sudoeste 0 -- -- 73
2018-11-05 19:00:00 10 12 Sudoeste 15 Sudoeste 0 -- -- 78
2018-11-05 18:00:00 10.1 4 Noroeste 22 Sudoeste 0 -- -- 87
2018-11-05 17:00:00 10.3 5 Sudoeste 12 Sudoeste 0 -- -- 94
2018-11-05 16:00:00 10.4 4 Sudoeste 15 Oeste 0 -- -- 93
2018-11-05 15:00:00 10.3 10 Este 16 Este 0.6 -- -- 91
2018-11-05 14:00:00 9.3 4 Este 10 Sudoeste 1.2 -- -- 91
2018-11-05 13:00:00 8.8 7 Oeste 15 Oeste 0.2 -- -- 90
2018-11-05 12:00:00 9.1 4 Oeste 9 Oeste 0 -- -- 85
2018-11-05 11:00:00 8.7 3 Norte 15 Este 0 -- -- 86
2018-11-05 10:00:00 7.6 0 Calma 8 Nordeste 0 -- -- 85
2018-11-05 09:00:00 6.5 3 Nordeste 6 Nordeste 0 -- -- 88
2018-11-05 08:00:00 5.9 2 Sudoeste 4 Noroeste 0 -- -- 87
2018-11-05 07:00:00 5.9 0 Calma 5 Sudoeste 0 -- -- 86
2018-11-05 06:00:00 5.9 2 Sur 14 Sudoeste 0 -- -- 86
2018-11-05 05:00:00 5.5 4 Sudoeste 8 Sudoeste 0 -- -- 87
2018-11-05 04:00:00 5.5 2 Sudeste 14 Sudoeste 0 -- -- 86
2018-11-05 03:00:00 5.7 4 Sudoeste 12 Sudoeste 0 -- -- 87
2018-11-05 02:00:00 5.4 5 Sudoeste 13 Sudoeste 0 -- -- 87
2018-11-05 01:00:00 6.1 8 Sudoeste 13 Sudoeste 0 -- -- 85
2018-11-05 00:00:00 6.9 5 Sudoeste 12 Sudoeste 0 -- -- 80
2018-11-04 23:00:00 7.2 10 Sudoeste 16 Sudoeste 0 -- -- 83
2018-11-04 22:00:00 8.4 3 Sudoeste 8 Oeste 0 -- -- 78
2018-11-04 21:00:00 9.2 2 Sur 9 Sudoeste 0 -- -- 71
2018-11-04 20:00:00 9.2 6 Sudoeste 8 Sudoeste 0 -- -- 72
2018-11-04 19:00:00 11 0 Calma 11 Sudeste 0 -- -- 62
2018-11-04 18:00:00 12.7 8 Este 12 Este 0 -- -- 57
2018-11-04 17:00:00 14.3 7 Nordeste 12 Nordeste 0 -- -- 52
2018-11-04 16:00:00 14.9 6 Este 14 Este 0 -- -- 50
2018-11-04 15:00:00 15.1 9 Este 14 Este 0 -- -- 50
2018-11-04 14:00:00 14.8 7 Este 17 Nordeste 0 -- -- 53
2018-11-04 13:00:00 13.7 8 Nordeste 15 Este 0 -- -- 60
2018-11-04 12:00:00 12.3 6 Nordeste 13 Este 0 -- -- 65
2018-11-04 11:00:00 11.1 10 Este 13 Este 0 -- -- 68
2018-11-04 10:00:00 9.3 4 Este 17 Sudoeste 0 -- -- 71
2018-11-04 09:00:00 6.1 12 Sudoeste 18 Sudoeste 0 -- -- 77
2018-11-04 08:00:00 4 12 Sudoeste 17 Sudoeste 0 -- -- 84
2018-11-04 07:00:00 3.6 9 Sudoeste 17 Sudoeste 0 -- -- 87
2018-11-04 06:00:00 4.2 13 Sudoeste 18 Sudoeste 0 -- -- 86
2018-11-04 05:00:00 5.2 3 Sudoeste 9 Sudoeste 0 -- -- 83
2018-11-04 04:00:00 5.4 6 Sudoeste 13 Sudoeste 0 -- -- 83
2018-11-04 03:00:00 6.1 5 Sudoeste 12 Sudoeste 0 -- -- 81
2018-11-04 02:00:00 7 9 Sudoeste 15 Sudoeste 0 -- -- 79
2018-11-04 01:00:00 7.2 11 Sudoeste 19 Sudoeste 0 -- -- 77
2018-11-04 00:00:00 7.2 13 Sudoeste 17 Sudoeste 0 -- -- 76
2018-11-03 23:00:00 7.3 12 Sudoeste 19 Sudoeste 0 -- -- 77
2018-11-03 22:00:00 7.5 12 Sudoeste 17 Sudoeste 0 -- -- 76
2018-11-03 21:00:00 7.8 10 Sudoeste 14 Sudoeste 0 -- -- 77
2018-11-03 20:00:00 8.6 11 Sudoeste 14 Sudoeste 0 -- -- 74
2018-11-03 19:00:00 10.2 5 Sudoeste 10 Oeste 0 -- -- 67
2018-11-03 18:00:00 12.6 3 Oeste 10 Norte 0 -- -- 58
2018-11-03 17:00:00 14.1 4 Noroeste 17 Norte 0 -- -- 53
2018-11-03 16:00:00 15.6 5 Noroeste 19 Norte 0 -- -- 49
2018-11-03 15:00:00 16.7 6 Noroeste 21 Noroeste 0 -- -- 47
2018-11-03 14:00:00 16 6 Noroeste 20 Norte 0 -- -- 49
2018-11-03 13:00:00 15.8 9 Noroeste 24 Noroeste 0 -- -- 49
2018-11-03 12:00:00 15.1 5 Noroeste 23 Noroeste 0 -- -- 55
2018-11-03 11:00:00 13.6 10 Noroeste 29 Oeste 0 -- -- 58
2018-11-03 10:00:00 11.2 14 Oeste 28 Noroeste 0 -- -- 66
2018-11-03 09:00:00 9 14 Oeste 25 Oeste 0 -- -- 71
2018-11-03 08:00:00 7.8 18 Oeste 27 Sudoeste 0 -- -- 75
2018-11-03 07:00:00 7.6 16 Oeste 28 Oeste 0 -- -- 77
2018-11-03 06:00:00 7.8 18 Oeste 28 Oeste 0 -- -- 76
2018-11-03 05:00:00 8.1 17 Oeste 31 Oeste 0 -- -- 75
2018-11-03 04:00:00 8.6 19 Oeste 31 Oeste 0 -- -- 75
2018-11-03 03:00:00 9 17 Oeste 30 Oeste 0 -- -- 74
2018-11-03 02:00:00 9.4 18 Oeste 31 Oeste 0 -- -- 74
2018-11-03 01:00:00 9.6 18 Oeste 33 Oeste 0 -- -- 74
2018-11-03 00:00:00 9.8 19 Oeste 32 Oeste 0 -- -- 74
2018-11-02 23:00:00 10.2 19 Oeste 38 Oeste 0 -- -- 73
2018-11-02 22:00:00 10.8 21 Oeste 40 Oeste 0 -- -- 72
2018-11-02 21:00:00 11.2 21 Oeste 36 Oeste 0 -- -- 71
2018-11-02 20:00:00 11.7 20 Oeste 27 Oeste 0 -- -- 73
2018-11-02 19:00:00 12.3 16 Oeste 26 Noroeste 0 -- -- 73
2018-11-02 18:00:00 13.2 11 Noroeste 29 Noroeste 0 -- -- 73
2018-11-02 17:00:00 14.4 9 Noroeste 37 Noroeste 0 -- -- 73
2018-11-02 16:00:00 14.9 10 Noroeste 28 Norte 0 -- -- 70
2018-11-02 15:00:00 14 8 Noroeste 35 Noroeste 0 -- -- 74
2018-11-02 14:00:00 13.9 8 Noroeste 34 Noroeste 0 -- -- 76
2018-11-02 13:00:00 14.3 8 Noroeste 23 Norte 0 -- -- 77
2018-11-02 12:00:00 13.5 5 Noroeste 21 Noroeste 0 -- -- 81
2018-11-02 11:00:00 12.4 7 Noroeste 17 Oeste 0 -- -- 87
2018-11-02 10:00:00 10.5 10 Sudoeste 16 Oeste 0 -- -- 95
2018-11-02 09:00:00 9.3 4 Sudoeste 8 Sudoeste 0.4 -- -- 95
2018-11-02 08:00:00 9 4 Sudoeste 6 Sudoeste 0.6 -- -- 94
2018-11-02 07:00:00 9.2 5 Sudoeste 9 Oeste 0.4 -- -- 93
2018-11-02 06:00:00 9.2 4 Sudoeste 13 Oeste 1.2 -- -- 92
2018-11-02 05:00:00 9.7 6 Oeste 26 Oeste 0.6 -- -- 87
2018-11-02 04:00:00 9.8 14 Sudoeste 17 Sudoeste 0 -- -- 74
2018-11-02 03:00:00 9.2 9 Oeste 13 Oeste 0 -- -- 76
2018-11-02 02:00:00 9.6 9 Sudoeste 18 Sudoeste 0 -- -- 73
2018-11-02 01:00:00 8.5 11 Sudoeste 16 Sudoeste 0 -- -- 82
2018-11-02 00:00:00 8.4 10 Sudoeste 15 Sudoeste 0 -- -- 84
2018-11-01 23:00:00 9 12 Sudoeste 15 Sudoeste 0 -- -- 84
2018-11-01 22:00:00 10.1 9 Sudoeste 16 Sudoeste 0 -- -- 79
2018-11-01 21:00:00 10.3 10 Sudoeste 14 Sudoeste 0 -- -- 78
2018-11-01 20:00:00 10.8 9 Sudoeste 12 Oeste 0 -- -- 77
2018-11-01 19:00:00 11.4 5 Sudoeste 8 Oeste 0 -- -- 76
2018-11-01 18:00:00 12.8 0 Calma 15 Noroeste 0 -- -- 69
2018-11-01 17:00:00 14.6 5 Noroeste 17 Norte 0 -- -- 62
2018-11-01 16:00:00 15.2 5 Noroeste 22 Noroeste 0 -- -- 60
2018-11-01 15:00:00 14.9 5 Noroeste 22 Noroeste 0 -- -- 63
2018-11-01 14:00:00 16.2 6 Noroeste 22 Noroeste 0 -- -- 61
2018-11-01 13:00:00 15.4 6 Noroeste 23 Oeste 0 -- -- 62
2018-11-01 12:00:00 14.6 8 Noroeste 21 Noroeste 0 -- -- 67
2018-11-01 11:00:00 13.1 4 Noroeste 17 Norte 0 -- -- 71
2018-11-01 10:00:00 12.1 5 Noroeste 21 Oeste 0 -- -- 74
2018-11-01 09:00:00 10.1 8 Oeste 14 Oeste 0 -- -- 84
2018-11-01 08:00:00 8.2 2 Oeste 10 Oeste 0 -- -- 89
2018-11-01 07:00:00 7.8 8 Oeste 14 Oeste 0 -- -- 88
2018-11-01 06:00:00 7.4 4 Oeste 10 Oeste 0 -- -- 87
2018-11-01 05:00:00 6.7 6 Oeste 12 Oeste 0 -- -- 88
2018-11-01 04:00:00 6.9 6 Sudoeste 14 Sudoeste 0 -- -- 88
2018-11-01 03:00:00 6.8 10 Sudoeste 15 Sudoeste 0 -- -- 89
2018-11-01 02:00:00 8 9 Oeste 17 Oeste 0 -- -- 84
2018-11-01 01:00:00 8 7 Sudoeste 9 Oeste 0 -- -- 80
2018-11-01 00:00:00 7.8 3 Oeste 4 Oeste 0 -- -- 80
2018-10-31 23:00:00 7 4 Sudoeste 9 Sudoeste 0 -- -- 81
2018-10-31 22:00:00 7.2 8 Sudoeste 9 Sudoeste 0 -- -- 81
2018-10-31 21:00:00 8.5 7 Sudoeste 10 Sur 0 -- -- 73
2018-10-31 20:00:00 8.7 2 Sur 10 Sudoeste 0 -- -- 75
2018-10-31 19:00:00 9.5 9 Sudoeste 14 Sudoeste 0 -- -- 69
2018-10-31 18:00:00 10.4 8 Sudoeste 18 Sudoeste 0 -- -- 68
2018-10-31 17:00:00 12.3 10 Oeste 22 Oeste 0 -- -- 65
2018-10-31 16:00:00 13.1 3 Noroeste 15 Oeste 0 -- -- 77
2018-10-31 15:00:00 10.5 9 Sudoeste 23 Sudoeste 0 -- -- 78
2018-10-31 14:00:00 10 14 Sudoeste 26 Sudoeste 0.4 -- -- 86
2018-10-31 13:00:00 11.1 0 Calma 5 Norte 0 -- -- 90
2018-10-31 12:00:00 10.7 0 Calma 3 Oeste 0.4 -- -- 92
2018-10-31 11:00:00 9.9 0 Calma 3 Norte 0.4 -- -- 94
2018-10-31 10:00:00 9.5 2 Norte 5 Sudoeste 0 -- -- 95
2018-10-31 09:00:00 9.1 4 Sudoeste 7 Oeste 0 -- -- 96
2018-10-31 08:00:00 8.6 6 Oeste 10 Oeste 0 -- -- 96
2018-10-31 07:00:00 8.7 5 Oeste 15 Oeste 0.2 -- -- 96
2018-10-31 06:00:00 8.9 6 Oeste 13 Oeste 0.8 -- -- 95
2018-10-31 05:00:00 9.1 5 Oeste 12 Oeste 1.6 -- -- 95
2018-10-31 04:00:00 9.2 0 Calma 9 Este 1.6 -- -- 96
2018-10-31 03:00:00 9 5 Nordeste 15 Este 0.6 -- -- 96
2018-10-31 02:00:00 9 9 Este 17 Este 1 -- -- 95
2018-10-31 01:00:00 9 10 Este 17 Este 0.8 -- -- 94
2018-10-31 00:00:00 8.9 4 Nordeste 13 Nordeste 1.4 -- -- 93
2018-10-30 23:00:00 9.1 6 Nordeste 11 Este 1.2 -- -- 90
2018-10-30 22:00:00 9.5 3 Este 10 Sudeste 0 -- -- 84
2018-10-30 21:00:00 9.3 2 Norte 9 Sudeste 0.2 -- -- 86
2018-10-30 20:00:00 9.7 6 Este 19 Este 0 -- -- 83
2018-10-30 19:00:00 10.1 13 Este 24 Sudeste 0 -- -- 81
2018-10-30 18:00:00 11.1 16 Sudeste 25 Sudeste 0 -- -- 75
2018-10-30 17:00:00 12.5 21 Este 28 Este 0 -- -- 63
2018-10-30 16:00:00 12.7 17 Este 32 Este 0 -- -- 65
2018-10-30 15:00:00 12.3 21 Sudeste 30 Sudeste 0 -- -- 68
2018-10-30 14:00:00 11.3 16 Sudeste 27 Este 0.2 -- -- 71
2018-10-30 13:00:00 9.3 18 Este 28 Este 0.2 -- -- 75
2018-10-30 12:00:00 8.4 13 Este 22 Sudeste 0 -- -- 78
2018-10-30 11:00:00 9.3 10 Sudeste 22 Sudeste 0 -- -- 63
2018-10-30 10:00:00 7.9 12 Sudeste 19 Sudeste 0 -- -- 63
2018-10-30 09:00:00 5.5 3 Sudeste 12 Este 0 -- -- 74
2018-10-30 08:00:00 4.4 6 Este 12 Este 0 -- -- 72
2018-10-30 07:00:00 4.2 3 Sudeste 10 Oeste 0 -- -- 73
2018-10-30 06:00:00 4.2 7 Sudoeste 12 Sudoeste 0 -- -- 71
2018-10-30 05:00:00 5.3 5 Este 7 Sudeste 0 -- -- 65
2018-10-30 04:00:00 5 2 Sudoeste 14 Sudoeste 0 -- -- 65
2018-10-30 03:00:00 5.2 11 Oeste 18 Oeste -- -- -- 65
2018-10-30 02:00:00 6.4 12 Oeste 25 Oeste 0 -- -- 61
2018-10-30 01:00:00 7.2 23 Oeste 37 Oeste 0 -- -- 58
2018-10-30 00:00:00 6.6 24 Oeste 37 Oeste 0 -- -- 61
2018-10-29 23:00:00 6.1 19 Oeste 32 Oeste 0 -- -- 63
2018-10-29 22:00:00 5.4 20 Oeste 28 Oeste 0 -- -- 65
2018-10-29 21:00:00 5.9 20 Oeste 33 Oeste 0 -- -- 64
2018-10-29 20:00:00 6.1 23 Oeste 35 Oeste 0 -- -- 69
2018-10-29 19:00:00 6.8 13 Noroeste 52 Noroeste 0 -- -- 65
2018-10-29 18:00:00 8.3 21 Noroeste 63 Oeste 0 -- -- 58
2018-10-29 17:00:00 8.9 16 Noroeste 52 Noroeste 0 -- -- 59
2018-10-29 16:00:00 9.6 26 Noroeste 65 Noroeste 0 -- -- 57
2018-10-29 15:00:00 10.5 27 Noroeste 63 Noroeste 0 -- -- 54
2018-10-29 14:00:00 9.2 30 Oeste 65 Oeste 0 -- -- 60
2018-10-29 13:00:00 10 34 Oeste 70 Oeste 0 -- -- 59
2018-10-29 12:00:00 10.5 32 Oeste 75 Oeste 0 -- -- 55
2018-10-29 11:00:00 9.8 36 Oeste 63 Oeste 0 -- -- 61
2018-10-29 10:00:00 8.7 31 Oeste 62 Oeste 0 -- -- 65
2018-10-29 09:00:00 6.4 27 Oeste 51 Oeste 0 -- -- 73
2018-10-29 08:00:00 4.7 28 Oeste 42 Oeste 0 -- -- 75
2018-10-29 07:00:00 4.4 16 Oeste 32 Oeste 0 -- -- 72
2018-10-29 06:00:00 4.7 7 Noroeste 36 Oeste 0 -- -- 69
2018-10-29 05:00:00 4.7 18 Oeste 29 Oeste 0 -- -- 67
2018-10-29 04:00:00 4.3 17 Oeste 31 Sudoeste 0 -- -- 67
2018-10-29 03:00:00 4 16 Oeste 24 Oeste 0 -- -- 68
2018-10-29 02:00:00 3.9 13 Oeste 28 Oeste 0 -- -- 70
2018-10-29 01:00:00 3.9 17 Oeste 29 Oeste 0 -- -- 73
2018-10-29 00:00:00 3.8 12 Oeste 26 Oeste 0 -- -- 75
2018-10-28 23:00:00 3.9 15 Oeste 22 Oeste 0 -- -- 76
2018-10-28 22:00:00 4.2 11 Oeste 19 Oeste 0 -- -- 75
2018-10-28 21:00:00 4.8 15 Oeste 25 Oeste 0 -- -- 70
2018-10-28 20:00:00 5.4 15 Oeste 24 Oeste 0 -- -- 62
2018-10-28 19:00:00 6.5 12 Oeste 27 Noroeste 0 -- -- 58
2018-10-28 18:00:00 7.7 9 Noroeste 26 Noroeste 0 -- -- 53
2018-10-28 17:00:00 8 8 Noroeste 33 Noroeste 0 -- -- 53
2018-10-28 16:00:00 8.6 11 Noroeste 37 Oeste 0 -- -- 56
2018-10-28 15:00:00 11.3 17 Noroeste 42 Oeste 0 -- -- 46
2018-10-28 14:00:00 11.7 15 Noroeste 37 Oeste 0 -- -- 45
2018-10-28 13:00:00 9.9 12 Noroeste 32 Oeste 0 -- -- 50
2018-10-28 12:00:00 11.5 14 Noroeste 34 Noroeste 0 -- -- 49
2018-10-28 11:00:00 9.5 10 Noroeste 37 Noroeste 0 -- -- 55
2018-10-28 10:00:00 9.9 18 Noroeste 41 Oeste 0 -- -- 58
2018-10-28 09:00:00 6.4 17 Noroeste 36 Oeste 0 -- -- 67
2018-10-28 08:00:00 5.6 18 Oeste 33 Oeste 0 -- -- 71
2018-10-28 07:00:00 4.9 16 Oeste 32 Norte 0 -- -- 75
2018-10-28 06:00:00 5.5 14 Oeste 26 Oeste 0 -- -- 73
2018-10-28 05:00:00 6.2 17 Oeste 27 Oeste 0 -- -- 71
2018-10-28 04:00:00 6.3 17 Oeste 26 Oeste 0 -- -- 71
2018-10-28 03:00:00 6.3 13 Oeste 24 Oeste 0 -- -- 72
2018-10-28 02:00:00 6.5 10 Oeste 25 Oeste 0 -- -- 73
2018-10-28 01:00:00 6.6 12 Oeste 24 Oeste 0 -- -- 72
2018-10-28 00:00:00 7.4 15 Oeste 24 Noroeste 0 -- -- 68
2018-10-27 23:00:00 8.4 12 Oeste 34 Noroeste 0 -- -- 67
2018-10-27 22:00:00 8.7 15 Oeste 31 Oeste 0 -- -- 66
2018-10-27 21:00:00 9.2 11 Oeste 31 Oeste 0 -- -- 66
2018-10-27 20:00:00 9.8 17 Oeste 38 Noroeste 0 -- -- 64
2018-10-27 19:00:00 10.4 13 Oeste 31 Oeste 0 -- -- 64
2018-10-27 18:00:00 11.3 14 Noroeste 39 Noroeste 0 -- -- 62
2018-10-27 17:00:00 11.8 18 Oeste 38 Oeste 0 -- -- 62
2018-10-27 16:00:00 12.7 15 Noroeste 37 Noroeste 0 -- -- 58
2018-10-27 15:00:00 14.2 15 Noroeste 43 Oeste 0 -- -- 56
2018-10-27 14:00:00 13 15 Noroeste 44 Noroeste 0 -- -- 63
2018-10-27 13:00:00 12.1 16 Noroeste 44 Noroeste 0 -- -- 64
2018-10-27 12:00:00 10.1 18 Noroeste 39 Oeste 0 -- -- 77
2018-10-27 11:00:00 10 18 Oeste 39 Oeste 0 -- -- 84
2018-10-27 10:00:00 10.5 14 Noroeste 29 Oeste 0.2 -- -- 91
2018-10-27 09:00:00 10.3 16 Oeste 27 Oeste 1 -- -- 94
2018-10-27 08:00:00 10.8 14 Oeste 25 Oeste 1 -- -- 92
2018-10-27 07:00:00 11.6 17 Oeste 35 Oeste 0.2 -- -- 86
2018-10-27 06:00:00 12 18 Oeste 34 Oeste 0.2 -- -- 83
2018-10-27 05:00:00 12.6 17 Oeste 28 Noroeste 0.4 -- -- 87
2018-10-27 04:00:00 13.6 17 Oeste 29 Oeste 0 -- -- 82
2018-10-27 03:00:00 13.9 17 Oeste 28 Oeste 0 -- -- 80
2018-10-27 02:00:00 14.2 14 Oeste 24 Oeste 0 -- -- 79
2018-10-27 01:00:00 14.4 13 Oeste 23 Oeste 0 -- -- 78
2018-10-27 00:00:00 14.5 11 Sudoeste 18 Oeste 0 -- -- 82
2018-10-26 23:00:00 14.6 8 Oeste 15 Oeste 0.6 -- -- 85
2018-10-26 22:00:00 15.7 10 Sudoeste 15 Sudoeste 0.4 -- -- 83
2018-10-26 21:00:00 16.4 10 Sudoeste 12 Sudoeste 0 -- -- 74
2018-10-26 20:00:00 16.9 4 Sudoeste 6 Oeste 0 -- -- 71
2018-10-26 19:00:00 17.8 4 Oeste 6 Oeste 0 -- -- 69
2018-10-26 18:00:00 18.8 2 Este 4 Nordeste 0 -- -- 62
2018-10-26 17:00:00 19.5 2 Norte 7 Este 0 -- -- 59
2018-10-26 16:00:00 19.5 3 Este 10 Este 0 -- -- 58
2018-10-26 15:00:00 19.3 4 Nordeste 9 Este 0 -- -- 62
2018-10-26 14:00:00 18 2 Norte 5 Nordeste 0 -- -- 67
2018-10-26 13:00:00 17 4 Nordeste 8 Nordeste 0 -- -- 66
2018-10-26 12:00:00 15.8 3 Norte 7 Nordeste 0 -- -- 72
2018-10-26 11:00:00 13.2 0 Calma 5 Nordeste 0 -- -- 78
2018-10-26 10:00:00 12.2 2 Este 3 Este 0 -- -- 82
2018-10-26 09:00:00 10.3 0 Calma 5 Sudoeste 0 -- -- 87
2018-10-26 08:00:00 9.6 4 Sudoeste 5 Sudoeste 0 -- -- 87
2018-10-26 07:00:00 9.9 4 Sudoeste 8 Oeste 0 -- -- 87
2018-10-26 06:00:00 10.3 5 Sudoeste 7 Sudoeste 0 -- -- 86
2018-10-26 05:00:00 10.8 4 Sudoeste 13 Sudoeste 0 -- -- 85
2018-10-26 04:00:00 11 8 Sudoeste 13 Sudoeste 0 -- -- 86
2018-10-26 03:00:00 11.9 8 Sudoeste 12 Sudoeste 0 -- -- 84
2018-10-26 02:00:00 12.7 7 Sudoeste 11 Sudoeste 0 -- -- 81
2018-10-26 01:00:00 12.9 4 Sudoeste 7 Este 0 -- -- 81
2018-10-26 00:00:00 13.4 4 Sur 11 Sudoeste 0 -- -- 79
2018-10-25 23:00:00 13.7 8 Sudoeste 13 Sudoeste 0 -- -- 79
2018-10-25 22:00:00 14.6 8 Sudoeste 12 Sudoeste 0 -- -- 75
2018-10-25 21:00:00 15.5 7 Sudoeste 10 Sudoeste 0 -- -- 70
2018-10-25 20:00:00 18 4 Sudeste 8 Este 0 -- -- 60
2018-10-25 19:00:00 20.1 6 Este 9 Este 0 -- -- 52
2018-10-25 18:00:00 21.4 6 Este 9 Este 0 -- -- 49
2018-10-25 17:00:00 21.7 5 Este 10 Este 0 -- -- 45
2018-10-25 16:00:00 22.2 5 Este 12 Nordeste 0 -- -- 44
2018-10-25 15:00:00 22 4 Este 10 Nordeste 0 -- -- 47
2018-10-25 14:00:00 21.3 3 Norte 9 Noroeste 0 -- -- 46
2018-10-25 13:00:00 20.1 3 Nordeste 8 Norte 0 -- -- 48
2018-10-25 12:00:00 18.7 5 Este 9 Este 0 -- -- 52
2018-10-25 11:00:00 16.3 3 Oeste 6 Oeste 0 -- -- 61
2018-10-25 10:00:00 11.7 6 Sudoeste 12 Sudoeste 0 -- -- 70
2018-10-25 09:00:00 9.4 7 Sudoeste 18 Sudoeste 0 -- -- 76
2018-10-25 08:00:00 8.8 9 Sudoeste 16 Sudoeste 0 -- -- 79
2018-10-25 07:00:00 9.4 5 Sudoeste 17 Oeste 0 -- -- 77
2018-10-25 06:00:00 9.9 13 Sudoeste 19 Sudoeste 0 -- -- 77
2018-10-25 05:00:00 10.3 12 Sudoeste 16 Sudoeste 0 -- -- 75
2018-10-25 04:00:00 11 13 Sudoeste 17 Sudoeste 0 -- -- 73
2018-10-25 03:00:00 11.5 11 Sudoeste 18 Sudoeste 0 -- -- 72
2018-10-25 02:00:00 12.1 13 Sudoeste 17 Sudoeste 0 -- -- 71
2018-10-25 01:00:00 13.2 13 Sudoeste 18 Sudoeste 0 -- -- 66
2018-10-25 00:00:00 13.5 12 Sudoeste 17 Sudoeste 0 -- -- 67
2018-10-24 23:00:00 15.1 14 Sudoeste 19 Sudoeste 0 -- -- 60
2018-10-24 22:00:00 15.8 14 Sudoeste 21 Sudoeste 0 -- -- 57
2018-10-24 21:00:00 16.7 15 Sudoeste 19 Sudoeste 0 -- -- 56
2018-10-24 20:00:00 18.1 11 Sudoeste 16 Sudoeste 0 -- -- 53
2018-10-24 19:00:00 20.8 8 Oeste 18 Noroeste 0 -- -- 47
2018-10-24 18:00:00 22.4 4 Noroeste 18 Norte 0 -- -- 41
2018-10-24 17:00:00 23.4 5 Noroeste 17 Noroeste 0 -- -- 37
2018-10-24 16:00:00 23.5 5 Noroeste 16 Norte 0 -- -- 40
2018-10-24 15:00:00 22.5 4 Norte 13 Norte 0 -- -- 40
2018-10-24 14:00:00 20.2 3 Norte 10 Noroeste 0 -- -- 45
2018-10-24 13:00:00 19.3 3 Norte 11 Norte 0 -- -- 50
2018-10-24 12:00:00 18.1 3 Norte 9 Norte 0 -- -- 56
2018-10-24 11:00:00 15.8 4 Sudoeste 12 Sudoeste 0 -- -- 61
2018-10-24 10:00:00 11.8 8 Sudoeste 15 Oeste 0 -- -- 75
2018-10-24 09:00:00 9.2 8 Sudoeste 17 Sudoeste 0 -- -- 83
2018-10-24 08:00:00 8.6 13 Sudoeste 19 Sudoeste 0 -- -- 86
2018-10-24 07:00:00 9 10 Sudoeste 19 Sudoeste 0 -- -- 84
2018-10-24 06:00:00 9.9 8 Sudoeste 15 Sudoeste 0 -- -- 81
2018-10-24 05:00:00 10.9 8 Oeste 13 Oeste 0 -- -- 76
2018-10-24 04:00:00 11.3 9 Sudoeste 16 Sudoeste 0 -- -- 75
2018-10-24 03:00:00 11.2 11 Sudoeste 15 Sudoeste 0 -- -- 78
2018-10-24 02:00:00 12 12 Sudoeste 16 Sudoeste 0 -- -- 75
2018-10-24 01:00:00 12.8 9 Sudoeste 15 Sudoeste 0 -- -- 71
2018-10-24 00:00:00 13.5 14 Sudoeste 18 Oeste 0 -- -- 69
2018-10-23 23:00:00 13.7 12 Sudoeste 17 Sudoeste 0 -- -- 70
2018-10-23 22:00:00 14.3 12 Sudoeste 18 Sudoeste 0 -- -- 68
2018-10-23 21:00:00 14.8 13 Sudoeste 16 Sudoeste 0 -- -- 68
2018-10-23 20:00:00 16.3 10 Sudoeste 13 Sudoeste 0 -- -- 64
2018-10-23 19:00:00 19.8 2 Oeste 6 Norte 0 -- -- 51
2018-10-23 18:00:00 20.6 2 Noroeste 14 Norte 0 -- -- 48
2018-10-23 17:00:00 21.3 4 Noroeste 18 Norte 0 -- -- 47
2018-10-23 16:00:00 21.9 4 Noroeste 16 Noroeste 0 -- -- 44
2018-10-23 15:00:00 21.7 6 Noroeste 22 Norte 0 -- -- 48
2018-10-23 14:00:00 20.9 4 Noroeste 18 Norte 0 -- -- 50
2018-10-23 13:00:00 19.9 4 Noroeste 20 Norte 0 -- -- 53
2018-10-23 12:00:00 18.4 5 Noroeste 24 Oeste 0 -- -- 55
2018-10-23 11:00:00 15.7 13 Oeste 26 Oeste 0 -- -- 62
2018-10-23 10:00:00 13 9 Sudoeste 21 Sudoeste 0 -- -- 67
2018-10-23 09:00:00 10.1 13 Sudoeste 18 Sudoeste 0 -- -- 75
2018-10-23 08:00:00 9.8 13 Sudoeste 18 Sudoeste 0 -- -- 76
2018-10-23 07:00:00 9.9 13 Sudoeste 17 Sudoeste 0 -- -- 76
2018-10-23 06:00:00 10 12 Sudoeste 18 Sudoeste 0 -- -- 76
2018-10-23 05:00:00 10.4 12 Sudoeste 21 Sudoeste 0 -- -- 74
2018-10-23 04:00:00 10.7 11 Sudoeste 17 Sudoeste 0 -- -- 72
2018-10-23 03:00:00 11 12 Sudoeste 18 Sudoeste 0 -- -- 71
2018-10-23 02:00:00 11.6 13 Oeste 21 Oeste 0 -- -- 68
2018-10-23 01:00:00 12.2 13 Sudoeste 20 Oeste 0 -- -- 67
2018-10-23 00:00:00 12.8 12 Oeste 21 Oeste 0 -- -- 65
2018-10-22 23:00:00 14 12 Oeste 25 Noroeste 0 -- -- 57
2018-10-22 22:00:00 14.9 12 Oeste 20 Oeste 0 -- -- 59
2018-10-22 21:00:00 16 13 Oeste 24 Oeste 0 -- -- 61
2018-10-22 20:00:00 17 12 Oeste 20 Oeste 0 -- -- 63
2018-10-22 19:00:00 19.8 10 Oeste 20 Oeste 0 -- -- 55
2018-10-22 18:00:00 21.3 5 Noroeste 18 Noroeste 0 -- -- 50
2018-10-22 17:00:00 22.4 6 Noroeste 19 Noroeste 0 -- -- 52
2018-10-22 16:00:00 23 6 Noroeste 19 Noroeste 0 -- -- 52
2018-10-22 15:00:00 22.7 10 Noroeste 23 Oeste 0 -- -- 52
2018-10-22 14:00:00 21.8 6 Noroeste 20 Noroeste 0 -- -- 57
2018-10-22 13:00:00 20.9 7 Noroeste 23 Oeste 0 -- -- 58
2018-10-22 12:00:00 19.5 9 Oeste 24 Oeste 0 -- -- 62
2018-10-22 11:00:00 17.7 7 Noroeste 28 Oeste 0 -- -- 65
2018-10-22 10:00:00 15.4 12 Oeste 20 Oeste 0 -- -- 74
2018-10-22 09:00:00 12.4 11 Sudoeste 17 Sudoeste 0 -- -- 85
2018-10-22 08:00:00 12.8 8 Sudoeste 14 Sudoeste 0 -- -- 84
2018-10-22 07:00:00 13.2 10 Sudoeste 16 Sudoeste 0 -- -- 84
2018-10-22 06:00:00 13.9 13 Sudoeste 17 Sudoeste 0 -- -- 83
2018-10-22 05:00:00 14.6 13 Sudoeste 18 Oeste 0 -- -- 81
2018-10-22 04:00:00 14.8 13 Sudoeste 18 Sudoeste 0 -- -- 83
2018-10-22 03:00:00 15.5 12 Sudoeste 18 Sudoeste 0 -- -- 83
2018-10-22 02:00:00 15.5 12 Sudoeste 16 Sudoeste 0 -- -- 86
2018-10-22 01:00:00 15.7 12 Sudoeste 15 Sudoeste 0 -- -- 86
2018-10-22 00:00:00 15.6 12 Sudoeste 16 Sudoeste 0 -- -- 89
2018-10-21 23:00:00 16.1 12 Sudoeste 17 Sudoeste 0 -- -- 87
2018-10-21 22:00:00 16.4 12 Sudoeste 17 Sudoeste 0 -- -- 87
2018-10-21 21:00:00 17.1 13 Sudoeste 17 Sudoeste 0 -- -- 85
2018-10-21 20:00:00 18.6 5 Sudoeste 7 Sudoeste 0 -- -- 76
2018-10-21 19:00:00 20.9 3 Sudoeste 5 Oeste 0 -- -- 70
2018-10-21 18:00:00 21.7 2 Noroeste 7 Noroeste 0 -- -- 66
2018-10-21 17:00:00 21.6 2 Este 9 Nordeste 0 -- -- 67
2018-10-21 16:00:00 22.2 4 Este 12 Norte 0 -- -- 68
2018-10-21 15:00:00 21.5 6 Este 13 Este 0 -- -- 70
2018-10-21 14:00:00 21.2 3 Sur 9 Nordeste 0 -- -- 74
2018-10-21 13:00:00 18.9 2 Norte 9 Nordeste 0 -- -- 80
2018-10-21 12:00:00 18 4 Nordeste 9 Nordeste 0 -- -- 87
2018-10-21 11:00:00 16.5 2 Nordeste 6 Este 0 -- -- 93
2018-10-21 10:00:00 15 6 Sudoeste 9 Sudoeste 0 -- -- 96
2018-10-21 09:00:00 13.9 7 Sudoeste 9 Sudoeste 0 -- -- 97
2018-10-21 08:00:00 13.3 5 Sudoeste 7 Sudoeste 0 -- -- 98
2018-10-21 07:00:00 12.5 6 Sudoeste 10 Sudoeste 0 -- -- 97
2018-10-21 06:00:00 12.9 6 Oeste 10 Sudoeste 0 -- -- 96
2018-10-21 05:00:00 13.2 6 Sudoeste 11 Sudoeste 0 -- -- 96
2018-10-21 04:00:00 13.3 4 Sudoeste 10 Sudoeste 0 -- -- 95
2018-10-21 03:00:00 13.6 6 Sudoeste 10 Sudoeste 0 -- -- 95
2018-10-21 02:00:00 14 5 Sudoeste 14 Sudoeste 0 -- -- 95
2018-10-21 01:00:00 14.2 6 Sudoeste 11 Sudoeste 0 -- -- 94
2018-10-21 00:00:00 14.9 6 Sudoeste 12 Sudoeste 0 -- -- 93
2018-10-20 23:00:00 15.6 3 Sudoeste 8 Sudoeste 0 -- -- 91
2018-10-20 22:00:00 16.4 3 Noroeste 6 Sudoeste 0 -- -- 89
2018-10-20 21:00:00 17.3 3 Sur 8 Sudeste 0 -- -- 86
2018-10-20 20:00:00 17.6 8 Sudeste 11 Sudeste 0 -- -- 85
2018-10-20 19:00:00 18.6 6 Sudeste 14 Este 0 -- -- 81
2018-10-20 18:00:00 19.9 10 Este 14 Este 0 -- -- 74
2018-10-20 17:00:00 20.3 4 Sudeste 12 Sudoeste 0 -- -- 74
2018-10-20 16:00:00 18.9 9 Sur 15 Sur 0 -- -- 79
2018-10-20 15:00:00 19.5 8 Este 12 Este 0 -- -- 79
2018-10-20 14:00:00 19.2 2 Norte 8 Oeste 0 -- -- 84
2018-10-20 13:00:00 17.7 5 Oeste 8 Oeste 0 -- -- 89
2018-10-20 12:00:00 16.8 0 Calma 4 Oeste 0 -- -- 92
2018-10-20 11:00:00 16.1 0 Calma 3 Sudoeste 0 -- -- 96
2018-10-20 10:00:00 15.3 0 Calma 4 Sudoeste 0 -- -- 97
2018-10-20 09:00:00 14.7 4 Sudoeste 8 Sudoeste 0 -- -- 97
2018-10-20 08:00:00 14.6 3 Sudoeste 7 Oeste 0 -- -- 97
2018-10-20 07:00:00 14.6 4 Sudoeste 5 Sudoeste 0 -- -- 97
2018-10-20 06:00:00 14.5 4 Sudoeste 5 Oeste 0 -- -- 97
2018-10-20 05:00:00 14.4 3 Oeste 4 Oeste 0 -- -- 96
2018-10-20 04:00:00 14.4 2 Este 5 Este 0 -- -- 96
2018-10-20 03:00:00 14.6 2 Norte 11 Nordeste 0 -- -- 96
2018-10-20 02:00:00 14.5 5 Sudoeste 11 Oeste 0 -- -- 96
2018-10-20 01:00:00 14.5 5 Sudoeste 9 Oeste 0.2 -- -- 96
2018-10-20 00:00:00 14.8 8 Nordeste 14 Este 1.4 -- -- 94
2018-10-19 23:00:00 14.8 9 Sudeste 18 Sudeste 1.2 -- -- 94
2018-10-19 22:00:00 15.1 8 Este 28 Este 1.8 -- -- 93
2018-10-19 21:00:00 16 19 Este 33 Este 3.4 -- -- 91
2018-10-19 20:00:00 16.9 0 Calma 5 Noroeste 1.6 -- -- 95
2018-10-19 19:00:00 17 3 Sudoeste 5 Oeste 1 -- -- 95
2018-10-19 18:00:00 17.4 3 Oeste 5 Sudoeste 0.8 -- -- 94
2018-10-19 17:00:00 17.8 3 Sudoeste 9 Nordeste 1 -- -- 93
2018-10-19 16:00:00 17.7 5 Nordeste 12 Nordeste 0.6 -- -- 92
2018-10-19 15:00:00 17.7 0 Calma 8 Noroeste 0 -- -- 92
2018-10-19 14:00:00 17.3 3 Norte 8 Norte 0 -- -- 94
2018-10-19 13:00:00 16.9 3 Norte 10 Noroeste 0 -- -- 95
2018-10-19 12:00:00 16.6 4 Norte 10 Norte 0.2 -- -- 96
2018-10-19 11:00:00 15.8 2 Noroeste 9 Norte 2 -- -- 96
2018-10-19 10:00:00 15.4 0 Calma 4 Norte 0.2 -- -- 96
2018-10-19 09:00:00 15.2 2 Norte 5 Norte 1.2 -- -- 96
2018-10-19 08:00:00 15.2 2 Norte 8 Norte 0.6 -- -- 95
2018-10-19 07:00:00 15.2 3 Norte 12 Noroeste 0.8 -- -- 96
2018-10-19 06:00:00 15.4 3 Norte 9 Norte 3.2 -- -- 95
2018-10-19 05:00:00 15.4 0 Calma 4 Noroeste 3.4 -- -- 95
2018-10-19 04:00:00 15.3 3 Sudoeste 8 Oeste 2.4 -- -- 95
2018-10-19 03:00:00 15.6 3 Oeste 9 Oeste 1.6 -- -- 95
2018-10-19 02:00:00 15.8 0 Calma 8 Noroeste 1 -- -- 94
2018-10-19 01:00:00 15.9 0 Calma 9 Noroeste 1.4 -- -- 95
2018-10-19 00:00:00 16 3 Noroeste 11 Norte 2.2 -- -- 94
2018-10-18 23:00:00 16 2 Noroeste 7 Noroeste 2.2 -- -- 94
2018-10-18 22:00:00 16.1 3 Noroeste 14 Norte 4.8 -- -- 94
2018-10-18 21:00:00 16.3 4 Noroeste 9 Norte 3 -- -- 94
2018-10-18 20:00:00 16.3 4 Norte 12 Noroeste 3.2 -- -- 94
2018-10-18 19:00:00 16.3 3 Norte 8 Noroeste 3.8 -- -- 92
2018-10-18 18:00:00 16.8 3 Oeste 6 Noroeste 1.8 -- -- 88
2018-10-18 17:00:00 17.6 0 Calma 8 Nordeste 2 -- -- 82
2018-10-18 16:00:00 19.5 3 Norte 10 Norte 0 -- -- 64
2018-10-18 15:00:00 19.7 4 Noroeste 10 Oeste 0 -- -- 64
2018-10-18 14:00:00 18.5 3 Noroeste 7 Oeste 0 -- -- 71
2018-10-18 13:00:00 17.9 2 Oeste 5 Noroeste 0 -- -- 77
2018-10-18 12:00:00 16.1 3 Norte 7 Noroeste 0 -- -- 80
2018-10-18 11:00:00 14.9 5 Oeste 9 Sudoeste 0 -- -- 78
2018-10-18 10:00:00 13.1 4 Sudoeste 10 Sudoeste 0 -- -- 81
2018-10-18 09:00:00 11.5 8 Sudoeste 13 Sudoeste 0 -- -- 84
2018-10-18 08:00:00 11.2 8 Sudoeste 13 Sudoeste 0 -- -- 86
2018-10-18 07:00:00 11.6 2 Sudoeste 14 Sudoeste 0 -- -- 84
2018-10-18 06:00:00 11.9 12 Sudoeste 16 Sudoeste 0 -- -- 84
2018-10-18 05:00:00 12.3 6 Sudoeste 14 Sudoeste 0 -- -- 82
2018-10-18 04:00:00 11.9 10 Sudoeste 13 Sudoeste 0 -- -- 84
2018-10-18 03:00:00 11.7 9 Sudoeste 16 Sudoeste 0 -- -- 84
2018-10-18 02:00:00 12.1 6 Sudoeste 10 Sudoeste 0 -- -- 82
2018-10-18 01:00:00 13.3 0 Calma 12 Este 0 -- -- 77
2018-10-18 00:00:00 14.2 6 Sudoeste 14 Sudoeste 0 -- -- 74